sensor_id;sensor_type;location;lat;lon;timestamp;P1;durP1;ratioP1;P2;durP2;ratioP2
53903;SDS011;39812;52.430;16.936;2023-03-01T00:00:37;62.42;;;21.77;;
53903;SDS011;39812;52.430;16.936;2023-03-01T00:03:02;47.78;;;20.05;;
53903;SDS011;39812;52.430;16.936;2023-03-01T00:05:28;53.60;;;19.77;;
53903;SDS011;39812;52.430;16.936;2023-03-01T00:07:54;56.85;;;20.58;;
53903;SDS011;39812;52.430;16.936;2023-03-01T00:10:19;54.35;;;22.77;;
53903;SDS011;39812;52.430;16.936;2023-03-01T00:12:45;66.13;;;26.23;;
53903;SDS011;39812;52.430;16.936;2023-03-01T00:15:11;77.68;;;29.48;;
53903;SDS011;39812;52.430;16.936;2023-03-01T00:17:37;75.80;;;27.90;;
53903;SDS011;39812;52.430;16.936;2023-03-01T00:20:03;78.18;;;27.13;;
53903;SDS011;39812;52.430;16.936;2023-03-01T00:22:32;80.82;;;27.27;;
53903;SDS011;39812;52.430;16.936;2023-03-01T00:24:58;70.18;;;26.80;;
53903;SDS011;39812;52.430;16.936;2023-03-01T00:27:24;67.40;;;26.20;;
53903;SDS011;39812;52.430;16.936;2023-03-01T00:29:49;72.95;;;28.50;;
53903;SDS011;39812;52.430;16.936;2023-03-01T00:32:15;69.05;;;27.15;;
53903;SDS011;39812;52.430;16.936;2023-03-01T00:34:41;63.15;;;23.85;;
53903;SDS011;39812;52.430;16.936;2023-03-01T00:37:06;66.28;;;26.55;;
53903;SDS011;39812;52.430;16.936;2023-03-01T00:39:32;64.53;;;26.33;;
53903;SDS011;39812;52.430;16.936;2023-03-01T00:41:58;77.78;;;27.95;;
53903;SDS011;39812;52.430;16.936;2023-03-01T00:44:24;65.28;;;26.33;;
53903;SDS011;39812;52.430;16.936;2023-03-01T00:46:50;68.00;;;26.40;;
53903;SDS011;39812;52.430;16.936;2023-03-01T00:49:15;65.90;;;24.92;;
53903;SDS011;39812;52.430;16.936;2023-03-01T00:51:41;71.15;;;28.00;;
53903;SDS011;39812;52.430;16.936;2023-03-01T00:54:07;64.78;;;24.33;;
53903;SDS011;39812;52.430;16.936;2023-03-01T00:56:34;66.65;;;27.08;;
53903;SDS011;39812;52.430;16.936;2023-03-01T00:58:59;64.32;;;25.95;;
53903;SDS011;39812;52.430;16.936;2023-03-01T01:01:26;70.88;;;23.27;;
53903;SDS011;39812;52.430;16.936;2023-03-01T01:03:57;60.47;;;25.05;;
53903;SDS011;39812;52.430;16.936;2023-03-01T01:06:29;60.47;;;25.00;;
53903;SDS011;39812;52.430;16.936;2023-03-01T01:09:00;71.70;;;28.88;;
53903;SDS011;39812;52.430;16.936;2023-03-01T01:11:28;62.88;;;25.92;;
53903;SDS011;39812;52.430;16.936;2023-03-01T01:13:54;67.35;;;22.77;;
53903;SDS011;39812;52.430;16.936;2023-03-01T01:16:23;69.78;;;25.80;;
53903;SDS011;39812;52.430;16.936;2023-03-01T01:18:50;59.65;;;25.58;;
53903;SDS011;39812;52.430;16.936;2023-03-01T01:21:18;51.83;;;22.80;;
53903;SDS011;39812;52.430;16.936;2023-03-01T01:23:46;49.63;;;23.27;;
53903;SDS011;39812;52.430;16.936;2023-03-01T01:26:14;63.10;;;24.48;;
53903;SDS011;39812;52.430;16.936;2023-03-01T01:28:44;46.13;;;17.15;;
53903;SDS011;39812;52.430;16.936;2023-03-01T01:31:11;58.72;;;20.27;;
53903;SDS011;39812;52.430;16.936;2023-03-01T01:33:37;48.20;;;20.45;;
53903;SDS011;39812;52.430;16.936;2023-03-01T01:36:03;44.20;;;19.73;;
53903;SDS011;39812;52.430;16.936;2023-03-01T01:38:30;50.42;;;17.70;;
53903;SDS011;39812;52.430;16.936;2023-03-01T01:40:55;39.95;;;13.85;;
53903;SDS011;39812;52.430;16.936;2023-03-01T01:43:23;35.15;;;14.57;;
53903;SDS011;39812;52.430;16.936;2023-03-01T01:45:57;43.80;;;16.63;;
53903;SDS011;39812;52.430;16.936;2023-03-01T01:48:54;41.65;;;16.05;;
53903;SDS011;39812;52.430;16.936;2023-03-01T01:51:38;47.08;;;18.15;;
53903;SDS011;39812;52.430;16.936;2023-03-01T01:54:11;45.15;;;18.45;;
53903;SDS011;39812;52.430;16.936;2023-03-01T01:59:09;42.25;;;18.95;;
53903;SDS011;39812;52.430;16.936;2023-03-01T02:01:36;46.58;;;19.33;;
53903;SDS011;39812;52.430;16.936;2023-03-01T02:04:02;53.40;;;22.13;;
53903;SDS011;39812;52.430;16.936;2023-03-01T02:06:33;39.78;;;18.40;;
53903;SDS011;39812;52.430;16.936;2023-03-01T02:09:03;49.60;;;19.88;;
53903;SDS011;39812;52.430;16.936;2023-03-01T02:11:33;54.13;;;21.52;;
53903;SDS011;39812;52.430;16.936;2023-03-01T02:14:02;68.20;;;25.65;;
53903;SDS011;39812;52.430;16.936;2023-03-01T02:16:28;59.47;;;25.25;;
53903;SDS011;39812;52.430;16.936;2023-03-01T02:18:55;64.70;;;27.98;;
53903;SDS011;39812;52.430;16.936;2023-03-01T02:21:37;61.15;;;26.10;;
53903;SDS011;39812;52.430;16.936;2023-03-01T02:27:00;53.35;;;25.02;;
53903;SDS011;39812;52.430;16.936;2023-03-01T02:29:26;82.68;;;27.38;;
53903;SDS011;39812;52.430;16.936;2023-03-01T02:31:53;57.20;;;26.25;;
53903;SDS011;39812;52.430;16.936;2023-03-01T02:34:22;64.50;;;27.73;;
53903;SDS011;39812;52.430;16.936;2023-03-01T02:36:57;58.22;;;25.88;;
53903;SDS011;39812;52.430;16.936;2023-03-01T02:39:33;52.08;;;20.95;;
53903;SDS011;39812;52.430;16.936;2023-03-01T02:42:07;64.13;;;25.05;;
53903;SDS011;39812;52.430;16.936;2023-03-01T02:44:37;67.18;;;24.10;;
53903;SDS011;39812;52.430;16.936;2023-03-01T02:47:03;64.88;;;25.38;;
53903;SDS011;39812;52.430;16.936;2023-03-01T02:49:32;59.90;;;24.30;;
53903;SDS011;39812;52.430;16.936;2023-03-01T02:55:13;60.03;;;25.23;;
53903;SDS011;39812;52.430;16.936;2023-03-01T02:57:22;57.13;;;24.20;;
53903;SDS011;39812;52.430;16.936;2023-03-01T02:59:49;67.03;;;24.63;;
53903;SDS011;39812;52.430;16.936;2023-03-01T03:02:24;54.45;;;22.73;;
53903;SDS011;39812;52.430;16.936;2023-03-01T03:05:08;66.90;;;23.48;;
53903;SDS011;39812;52.430;16.936;2023-03-01T03:07:37;52.55;;;23.58;;
53903;SDS011;39812;52.430;16.936;2023-03-01T03:10:06;64.20;;;26.52;;
53903;SDS011;39812;52.430;16.936;2023-03-01T03:12:34;46.95;;;23.63;;
53903;SDS011;39812;52.430;16.936;2023-03-01T03:14:59;51.63;;;23.83;;
53903;SDS011;39812;52.430;16.936;2023-03-01T03:17:25;56.42;;;22.52;;
53903;SDS011;39812;52.430;16.936;2023-03-01T03:19:51;48.60;;;22.67;;
53903;SDS011;39812;52.430;16.936;2023-03-01T03:22:16;61.92;;;24.17;;
53903;SDS011;39812;52.430;16.936;2023-03-01T03:24:42;57.83;;;24.27;;
53903;SDS011;39812;52.430;16.936;2023-03-01T03:27:08;67.00;;;26.30;;
53903;SDS011;39812;52.430;16.936;2023-03-01T03:29:33;50.15;;;19.85;;
53903;SDS011;39812;52.430;16.936;2023-03-01T03:31:59;60.63;;;22.80;;
53903;SDS011;39812;52.430;16.936;2023-03-01T03:34:25;61.13;;;24.45;;
53903;SDS011;39812;52.430;16.936;2023-03-01T03:36:54;50.63;;;22.05;;
53903;SDS011;39812;52.430;16.936;2023-03-01T03:39:22;63.20;;;22.08;;
53903;SDS011;39812;52.430;16.936;2023-03-01T03:41:48;52.88;;;22.77;;
53903;SDS011;39812;52.430;16.936;2023-03-01T03:44:14;51.40;;;21.95;;
53903;SDS011;39812;52.430;16.936;2023-03-01T03:46:40;49.40;;;20.42;;
53903;SDS011;39812;52.430;16.936;2023-03-01T03:49:05;47.88;;;21.83;;
53903;SDS011;39812;52.430;16.936;2023-03-01T03:51:31;55.10;;;20.70;;
53903;SDS011;39812;52.430;16.936;2023-03-01T03:53:57;51.03;;;22.67;;
53903;SDS011;39812;52.430;16.936;2023-03-01T03:56:22;63.72;;;22.42;;
53903;SDS011;39812;52.430;16.936;2023-03-01T03:58:51;49.75;;;20.85;;
53903;SDS011;39812;52.430;16.936;2023-03-01T04:01:17;57.35;;;23.15;;
53903;SDS011;39812;52.430;16.936;2023-03-01T04:03:43;53.92;;;22.88;;
53903;SDS011;39812;52.430;16.936;2023-03-01T04:06:12;57.83;;;26.25;;
53903;SDS011;39812;52.430;16.936;2023-03-01T04:08:38;66.13;;;24.45;;
53903;SDS011;39812;52.430;16.936;2023-03-01T04:11:05;55.38;;;23.38;;
53903;SDS011;39812;52.430;16.936;2023-03-01T04:13:50;67.40;;;25.33;;
53903;SDS011;39812;52.430;16.936;2023-03-01T04:16:18;59.38;;;23.83;;
53903;SDS011;39812;52.430;16.936;2023-03-01T04:18:44;60.47;;;23.35;;
53903;SDS011;39812;52.430;16.936;2023-03-01T04:21:10;56.42;;;24.70;;
53903;SDS011;39812;52.430;16.936;2023-03-01T04:23:36;47.10;;;20.67;;
53903;SDS011;39812;52.430;16.936;2023-03-01T04:26:02;55.58;;;23.20;;
53903;SDS011;39812;52.430;16.936;2023-03-01T04:31:03;51.40;;;22.50;;
53903;SDS011;39812;52.430;16.936;2023-03-01T04:33:51;47.63;;;22.88;;
53903;SDS011;39812;52.430;16.936;2023-03-01T04:36:20;43.55;;;19.13;;
53903;SDS011;39812;52.430;16.936;2023-03-01T04:38:48;48.22;;;20.63;;
53903;SDS011;39812;52.430;16.936;2023-03-01T04:41:14;38.15;;;16.15;;
53903;SDS011;39812;52.430;16.936;2023-03-01T04:43:42;35.03;;;16.67;;
53903;SDS011;39812;52.430;16.936;2023-03-01T04:46:08;58.95;;;22.90;;
53903;SDS011;39812;52.430;16.936;2023-03-01T04:48:40;44.58;;;18.70;;
53903;SDS011;39812;52.430;16.936;2023-03-01T04:51:07;54.53;;;19.85;;
53903;SDS011;39812;52.430;16.936;2023-03-01T04:53:33;40.45;;;19.08;;
53903;SDS011;39812;52.430;16.936;2023-03-01T04:56:01;53.20;;;23.00;;
53903;SDS011;39812;52.430;16.936;2023-03-01T04:58:28;49.45;;;19.38;;
53903;SDS011;39812;52.430;16.936;2023-03-01T05:00:54;56.05;;;23.17;;
53903;SDS011;39812;52.430;16.936;2023-03-01T05:03:20;59.83;;;23.95;;
53903;SDS011;39812;52.430;16.936;2023-03-01T05:05:48;62.25;;;23.65;;
53903;SDS011;39812;52.430;16.936;2023-03-01T05:08:15;54.40;;;22.67;;
53903;SDS011;39812;52.430;16.936;2023-03-01T05:10:47;49.08;;;21.27;;
53903;SDS011;39812;52.430;16.936;2023-03-01T05:13:15;61.00;;;24.02;;
53903;SDS011;39812;52.430;16.936;2023-03-01T05:15:46;57.30;;;23.38;;
53903;SDS011;39812;52.430;16.936;2023-03-01T05:18:13;48.67;;;21.17;;
53903;SDS011;39812;52.430;16.936;2023-03-01T05:20:39;42.35;;;20.20;;
53903;SDS011;39812;52.430;16.936;2023-03-01T05:23:05;45.15;;;20.70;;
53903;SDS011;39812;52.430;16.936;2023-03-01T05:25:33;44.90;;;21.25;;
53903;SDS011;39812;52.430;16.936;2023-03-01T05:28:00;45.88;;;20.02;;
53903;SDS011;39812;52.430;16.936;2023-03-01T05:30:29;39.83;;;18.35;;
53903;SDS011;39812;52.430;16.936;2023-03-01T05:32:56;50.25;;;20.00;;
53903;SDS011;39812;52.430;16.936;2023-03-01T05:35:22;39.25;;;16.40;;
53903;SDS011;39812;52.430;16.936;2023-03-01T05:37:48;37.53;;;15.80;;
53903;SDS011;39812;52.430;16.936;2023-03-01T05:40:18;44.05;;;18.55;;
53903;SDS011;39812;52.430;16.936;2023-03-01T05:42:47;32.33;;;16.55;;
53903;SDS011;39812;52.430;16.936;2023-03-01T05:45:15;42.20;;;17.85;;
53903;SDS011;39812;52.430;16.936;2023-03-01T05:47:42;42.97;;;19.13;;
53903;SDS011;39812;52.430;16.936;2023-03-01T05:50:13;40.80;;;19.20;;
53903;SDS011;39812;52.430;16.936;2023-03-01T05:53:00;50.45;;;20.63;;
53903;SDS011;39812;52.430;16.936;2023-03-01T05:55:28;48.08;;;20.48;;
53903;SDS011;39812;52.430;16.936;2023-03-01T05:57:57;49.58;;;22.65;;
53903;SDS011;39812;52.430;16.936;2023-03-01T06:00:24;58.28;;;26.17;;
53903;SDS011;39812;52.430;16.936;2023-03-01T06:02:50;68.13;;;25.05;;
53903;SDS011;39812;52.430;16.936;2023-03-01T06:05:17;60.88;;;23.65;;
53903;SDS011;39812;52.430;16.936;2023-03-01T06:07:43;64.88;;;24.85;;
53903;SDS011;39812;52.430;16.936;2023-03-01T06:10:09;66.30;;;25.20;;
53903;SDS011;39812;52.430;16.936;2023-03-01T06:12:36;64.53;;;26.23;;
53903;SDS011;39812;52.430;16.936;2023-03-01T06:15:04;63.83;;;22.90;;
53903;SDS011;39812;52.430;16.936;2023-03-01T06:17:31;55.95;;;25.38;;
53903;SDS011;39812;52.430;16.936;2023-03-01T06:20:02;61.13;;;26.17;;
53903;SDS011;39812;52.430;16.936;2023-03-01T06:22:35;69.10;;;26.65;;
53903;SDS011;39812;52.430;16.936;2023-03-01T06:25:01;63.58;;;28.23;;
53903;SDS011;39812;52.430;16.936;2023-03-01T06:27:27;59.17;;;23.27;;
53903;SDS011;39812;52.430;16.936;2023-03-01T06:29:53;55.83;;;22.52;;
53903;SDS011;39812;52.430;16.936;2023-03-01T06:32:18;61.60;;;24.92;;
53903;SDS011;39812;52.430;16.936;2023-03-01T06:34:44;49.90;;;23.50;;
53903;SDS011;39812;52.430;16.936;2023-03-01T06:37:10;62.40;;;22.95;;
53903;SDS011;39812;52.430;16.936;2023-03-01T06:39:36;39.90;;;19.20;;
53903;SDS011;39812;52.430;16.936;2023-03-01T06:42:02;53.78;;;21.13;;
53903;SDS011;39812;52.430;16.936;2023-03-01T06:44:28;38.22;;;16.35;;
53903;SDS011;39812;52.430;16.936;2023-03-01T06:46:54;43.20;;;19.30;;
53903;SDS011;39812;52.430;16.936;2023-03-01T06:49:19;37.92;;;14.70;;
53903;SDS011;39812;52.430;16.936;2023-03-01T06:51:46;34.67;;;16.50;;
53903;SDS011;39812;52.430;16.936;2023-03-01T06:54:11;31.95;;;14.13;;
53903;SDS011;39812;52.430;16.936;2023-03-01T06:56:37;47.58;;;17.58;;
53903;SDS011;39812;52.430;16.936;2023-03-01T06:59:03;46.28;;;18.30;;
53903;SDS011;39812;52.430;16.936;2023-03-01T07:01:29;29.85;;;13.10;;
53903;SDS011;39812;52.430;16.936;2023-03-01T07:03:55;44.42;;;19.40;;
53903;SDS011;39812;52.430;16.936;2023-03-01T07:06:21;33.53;;;16.23;;
53903;SDS011;39812;52.430;16.936;2023-03-01T07:08:48;44.33;;;20.52;;
53903;SDS011;39812;52.430;16.936;2023-03-01T07:11:14;45.03;;;16.42;;
53903;SDS011;39812;52.430;16.936;2023-03-01T07:13:40;35.40;;;15.35;;
53903;SDS011;39812;52.430;16.936;2023-03-01T07:16:05;32.53;;;14.63;;
53903;SDS011;39812;52.430;16.936;2023-03-01T07:18:31;34.95;;;14.60;;
53903;SDS011;39812;52.430;16.936;2023-03-01T07:20:57;33.55;;;15.85;;
53903;SDS011;39812;52.430;16.936;2023-03-01T07:23:23;44.88;;;16.33;;
53903;SDS011;39812;52.430;16.936;2023-03-01T07:25:54;35.83;;;15.93;;
53903;SDS011;39812;52.430;16.936;2023-03-01T07:28:22;38.38;;;16.13;;
53903;SDS011;39812;52.430;16.936;2023-03-01T07:30:48;27.52;;;13.35;;
53903;SDS011;39812;52.430;16.936;2023-03-01T07:33:14;34.60;;;15.45;;
53903;SDS011;39812;52.430;16.936;2023-03-01T07:35:39;36.70;;;14.57;;
53903;SDS011;39812;52.430;16.936;2023-03-01T07:38:05;33.90;;;14.52;;
53903;SDS011;39812;52.430;16.936;2023-03-01T07:40:31;38.05;;;15.82;;
53903;SDS011;39812;52.430;16.936;2023-03-01T07:42:57;30.98;;;13.93;;
53903;SDS011;39812;52.430;16.936;2023-03-01T07:45:23;38.97;;;14.48;;
53903;SDS011;39812;52.430;16.936;2023-03-01T07:47:50;39.42;;;14.07;;
53903;SDS011;39812;52.430;16.936;2023-03-01T07:50:16;34.03;;;12.95;;
53903;SDS011;39812;52.430;16.936;2023-03-01T07:52:45;34.17;;;12.90;;
53903;SDS011;39812;52.430;16.936;2023-03-01T07:55:11;35.65;;;14.68;;
53903;SDS011;39812;52.430;16.936;2023-03-01T07:57:37;32.67;;;13.30;;
53903;SDS011;39812;52.430;16.936;2023-03-01T08:00:04;29.33;;;12.65;;
53903;SDS011;39812;52.430;16.936;2023-03-01T08:02:30;28.95;;;13.05;;
53903;SDS011;39812;52.430;16.936;2023-03-01T08:04:56;32.95;;;13.23;;
53903;SDS011;39812;52.430;16.936;2023-03-01T08:07:22;26.75;;;11.38;;
53903;SDS011;39812;52.430;16.936;2023-03-01T08:09:48;31.05;;;13.80;;
53903;SDS011;39812;52.430;16.936;2023-03-01T08:12:13;31.00;;;13.05;;
53903;SDS011;39812;52.430;16.936;2023-03-01T08:14:41;41.42;;;14.07;;
53903;SDS011;39812;52.430;16.936;2023-03-01T08:17:06;26.85;;;11.90;;
53903;SDS011;39812;52.430;16.936;2023-03-01T08:19:32;28.38;;;13.05;;
53903;SDS011;39812;52.430;16.936;2023-03-01T08:21:59;29.05;;;12.60;;
53903;SDS011;39812;52.430;16.936;2023-03-01T08:24:28;28.70;;;12.13;;
53903;SDS011;39812;52.430;16.936;2023-03-01T08:26:54;25.67;;;11.32;;
53903;SDS011;39812;52.430;16.936;2023-03-01T08:29:20;29.95;;;13.30;;
53903;SDS011;39812;52.430;16.936;2023-03-01T08:31:47;32.10;;;11.82;;
53903;SDS011;39812;52.430;16.936;2023-03-01T08:34:14;23.00;;;9.65;;
53903;SDS011;39812;52.430;16.936;2023-03-01T08:36:41;15.57;;;7.20;;
53903;SDS011;39812;52.430;16.936;2023-03-01T08:39:09;13.60;;;7.15;;
53903;SDS011;39812;52.430;16.936;2023-03-01T08:41:36;14.68;;;6.88;;
53903;SDS011;39812;52.430;16.936;2023-03-01T08:44:03;15.32;;;6.68;;
53903;SDS011;39812;52.430;16.936;2023-03-01T08:46:30;15.95;;;6.47;;
53903;SDS011;39812;52.430;16.936;2023-03-01T08:48:57;15.10;;;5.97;;
53903;SDS011;39812;52.430;16.936;2023-03-01T08:51:24;17.65;;;6.88;;
53903;SDS011;39812;52.430;16.936;2023-03-01T08:53:50;20.70;;;8.57;;
53903;SDS011;39812;52.430;16.936;2023-03-01T08:56:17;15.45;;;7.75;;
53903;SDS011;39812;52.430;16.936;2023-03-01T08:58:44;18.67;;;7.15;;
53903;SDS011;39812;52.430;16.936;2023-03-01T09:01:12;14.52;;;7.50;;
53903;SDS011;39812;52.430;16.936;2023-03-01T09:03:39;16.98;;;8.13;;
53903;SDS011;39812;52.430;16.936;2023-03-01T09:06:05;16.77;;;9.05;;
53903;SDS011;39812;52.430;16.936;2023-03-01T09:08:36;15.75;;;7.43;;
53903;SDS011;39812;52.430;16.936;2023-03-01T09:11:06;18.60;;;8.20;;
53903;SDS011;39812;52.430;16.936;2023-03-01T09:13:34;19.55;;;7.85;;
53903;SDS011;39812;52.430;16.936;2023-03-01T09:16:00;14.70;;;7.53;;
53903;SDS011;39812;52.430;16.936;2023-03-01T09:18:27;18.58;;;7.07;;
53903;SDS011;39812;52.430;16.936;2023-03-01T09:21:00;13.18;;;6.53;;
53903;SDS011;39812;52.430;16.936;2023-03-01T09:23:27;11.88;;;5.47;;
53903;SDS011;39812;52.430;16.936;2023-03-01T09:25:53;13.07;;;6.13;;
53903;SDS011;39812;52.430;16.936;2023-03-01T09:28:18;10.98;;;5.93;;
53903;SDS011;39812;52.430;16.936;2023-03-01T09:30:44;10.80;;;5.45;;
53903;SDS011;39812;52.430;16.936;2023-03-01T09:33:09;15.63;;;7.05;;
53903;SDS011;39812;52.430;16.936;2023-03-01T09:35:40;15.07;;;6.95;;
53903;SDS011;39812;52.430;16.936;2023-03-01T09:38:11;13.85;;;5.95;;
53903;SDS011;39812;52.430;16.936;2023-03-01T09:40:41;13.07;;;6.13;;
53903;SDS011;39812;52.430;16.936;2023-03-01T09:46:24;10.85;;;4.63;;
53903;SDS011;39812;52.430;16.936;2023-03-01T09:48:53;9.75;;;4.55;;
53903;SDS011;39812;52.430;16.936;2023-03-01T09:51:25;13.43;;;5.75;;
53903;SDS011;39812;52.430;16.936;2023-03-01T09:54:00;10.77;;;4.63;;
53903;SDS011;39812;52.430;16.936;2023-03-01T10:01:31;11.30;;;5.43;;
53903;SDS011;39812;52.430;16.936;2023-03-01T10:06:54;9.73;;;4.53;;
53903;SDS011;39812;52.430;16.936;2023-03-01T10:09:21;12.77;;;5.43;;
53903;SDS011;39812;52.430;16.936;2023-03-01T10:11:52;11.13;;;5.03;;
53903;SDS011;39812;52.430;16.936;2023-03-01T10:14:30;12.05;;;4.88;;
53903;SDS011;39812;52.430;16.936;2023-03-01T10:20:21;12.80;;;5.68;;
53903;SDS011;39812;52.430;16.936;2023-03-01T10:22:48;9.57;;;3.95;;
53903;SDS011;39812;52.430;16.936;2023-03-01T10:31:04;9.27;;;4.25;;
53903;SDS011;39812;52.430;16.936;2023-03-01T10:33:37;10.32;;;5.10;;
53903;SDS011;39812;52.430;16.936;2023-03-01T10:36:07;11.65;;;4.90;;
53903;SDS011;39812;52.430;16.936;2023-03-01T10:41:22;12.10;;;4.47;;
53903;SDS011;39812;52.430;16.936;2023-03-01T10:43:50;12.18;;;4.93;;
53903;SDS011;39812;52.430;16.936;2023-03-01T10:56:57;11.32;;;5.07;;
53903;SDS011;39812;52.430;16.936;2023-03-01T11:02:03;12.82;;;4.72;;
53903;SDS011;39812;52.430;16.936;2023-03-01T11:04:58;9.82;;;5.18;;
53903;SDS011;39812;52.430;16.936;2023-03-01T11:07:26;10.90;;;4.75;;
53903;SDS011;39812;52.430;16.936;2023-03-01T11:09:53;11.90;;;5.22;;
53903;SDS011;39812;52.430;16.936;2023-03-01T11:12:20;12.75;;;4.88;;
53903;SDS011;39812;52.430;16.936;2023-03-01T11:14:47;9.38;;;4.18;;
53903;SDS011;39812;52.430;16.936;2023-03-01T11:22:52;11.18;;;4.60;;
53903;SDS011;39812;52.430;16.936;2023-03-01T11:25:23;12.20;;;3.97;;
53903;SDS011;39812;52.430;16.936;2023-03-01T11:27:56;12.85;;;4.60;;
53903;SDS011;39812;52.430;16.936;2023-03-01T11:30:27;11.93;;;4.85;;
53903;SDS011;39812;52.430;16.936;2023-03-01T11:35:34;10.90;;;5.28;;
53903;SDS011;39812;52.430;16.936;2023-03-01T11:38:05;14.15;;;5.93;;
53903;SDS011;39812;52.430;16.936;2023-03-01T11:40:49;11.10;;;4.78;;
53903;SDS011;39812;52.430;16.936;2023-03-01T11:58:10;8.80;;;5.03;;
53903;SDS011;39812;52.430;16.936;2023-03-01T12:23:53;7.55;;;4.32;;
53903;SDS011;39812;52.430;16.936;2023-03-01T12:29:15;8.23;;;5.15;;
53903;SDS011;39812;52.430;16.936;2023-03-01T12:43:00;10.95;;;5.28;;
53903;SDS011;39812;52.430;16.936;2023-03-01T12:45:47;6.75;;;4.38;;
53903;SDS011;39812;52.430;16.936;2023-03-01T12:51:12;7.93;;;4.55;;
53903;SDS011;39812;52.430;16.936;2023-03-01T12:53:41;8.02;;;5.20;;
53903;SDS011;39812;52.430;16.936;2023-03-01T12:56:14;9.60;;;4.70;;
53903;SDS011;39812;52.430;16.936;2023-03-01T13:13:23;8.48;;;4.80;;
53903;SDS011;39812;52.430;16.936;2023-03-01T13:15:50;7.95;;;4.20;;
53903;SDS011;39812;52.430;16.936;2023-03-01T13:20:51;8.10;;;4.40;;
53903;SDS011;39812;52.430;16.936;2023-03-01T13:31:06;7.05;;;4.07;;
53903;SDS011;39812;52.430;16.936;2023-03-01T13:33:38;9.48;;;4.60;;
53903;SDS011;39812;52.430;16.936;2023-03-01T13:36:10;9.32;;;5.05;;
53903;SDS011;39812;52.430;16.936;2023-03-01T13:39:01;8.27;;;5.35;;
53903;SDS011;39812;52.430;16.936;2023-03-01T13:44:24;8.45;;;4.93;;
53903;SDS011;39812;52.430;16.936;2023-03-01T13:46:59;8.55;;;4.68;;
53903;SDS011;39812;52.430;16.936;2023-03-01T13:52:30;7.90;;;4.88;;
53903;SDS011;39812;52.430;16.936;2023-03-01T13:55:13;9.90;;;5.22;;
53903;SDS011;39812;52.430;16.936;2023-03-01T13:57:39;9.80;;;4.72;;
53903;SDS011;39812;52.430;16.936;2023-03-01T14:00:25;6.82;;;4.40;;
53903;SDS011;39812;52.430;16.936;2023-03-01T14:03:40;7.15;;;4.65;;
53903;SDS011;39812;52.430;16.936;2023-03-01T14:08:31;7.55;;;4.35;;
53903;SDS011;39812;52.430;16.936;2023-03-01T14:21:31;7.60;;;4.47;;
53903;SDS011;39812;52.430;16.936;2023-03-01T14:23:57;8.30;;;4.82;;
53903;SDS011;39812;52.430;16.936;2023-03-01T14:26:24;7.43;;;4.28;;
53903;SDS011;39812;52.430;16.936;2023-03-01T14:28:50;8.48;;;4.43;;
53903;SDS011;39812;52.430;16.936;2023-03-01T14:31:49;8.45;;;5.00;;
53903;SDS011;39812;52.430;16.936;2023-03-01T14:34:16;7.32;;;4.82;;
53903;SDS011;39812;52.430;16.936;2023-03-01T14:36:45;8.05;;;4.40;;
53903;SDS011;39812;52.430;16.936;2023-03-01T14:39:18;7.88;;;4.45;;
53903;SDS011;39812;52.430;16.936;2023-03-01T14:41:53;6.47;;;4.18;;
53903;SDS011;39812;52.430;16.936;2023-03-01T14:44:20;10.63;;;4.75;;
53903;SDS011;39812;52.430;16.936;2023-03-01T14:46:51;8.38;;;4.50;;
53903;SDS011;39812;52.430;16.936;2023-03-01T14:49:22;9.05;;;4.65;;
53903;SDS011;39812;52.430;16.936;2023-03-01T14:52:00;9.27;;;4.63;;
53903;SDS011;39812;52.430;16.936;2023-03-01T14:54:41;7.50;;;4.07;;
53903;SDS011;39812;52.430;16.936;2023-03-01T14:57:12;9.13;;;4.80;;
53903;SDS011;39812;52.430;16.936;2023-03-01T14:59:47;8.65;;;5.38;;
53903;SDS011;39812;52.430;16.936;2023-03-01T15:02:19;9.63;;;5.18;;
53903;SDS011;39812;52.430;16.936;2023-03-01T15:04:54;9.55;;;4.93;;
53903;SDS011;39812;52.430;16.936;2023-03-01T15:07:28;10.07;;;5.22;;
53903;SDS011;39812;52.430;16.936;2023-03-01T15:10:05;6.95;;;4.20;;
53903;SDS011;39812;52.430;16.936;2023-03-01T15:12:40;12.63;;;4.78;;
53903;SDS011;39812;52.430;16.936;2023-03-01T15:15:20;8.18;;;5.05;;
53903;SDS011;39812;52.430;16.936;2023-03-01T15:17:55;9.02;;;4.20;;
53903;SDS011;39812;52.430;16.936;2023-03-01T15:20:23;9.88;;;4.97;;
53903;SDS011;39812;52.430;16.936;2023-03-01T15:22:53;8.85;;;4.75;;
53903;SDS011;39812;52.430;16.936;2023-03-01T15:25:21;9.68;;;4.68;;
53903;SDS011;39812;52.430;16.936;2023-03-01T15:27:49;6.43;;;4.20;;
53903;SDS011;39812;52.430;16.936;2023-03-01T15:32:48;8.15;;;4.82;;
53903;SDS011;39812;52.430;16.936;2023-03-01T15:35:45;9.98;;;4.10;;
53903;SDS011;39812;52.430;16.936;2023-03-01T15:43:53;9.15;;;4.82;;
53903;SDS011;39812;52.430;16.936;2023-03-01T15:46:30;8.85;;;4.60;;
53903;SDS011;39812;52.430;16.936;2023-03-01T15:48:58;10.70;;;4.70;;
53903;SDS011;39812;52.430;16.936;2023-03-01T15:51:28;9.30;;;4.65;;
53903;SDS011;39812;52.430;16.936;2023-03-01T15:53:59;8.60;;;4.90;;
53903;SDS011;39812;52.430;16.936;2023-03-01T15:56:31;11.13;;;4.90;;
53903;SDS011;39812;52.430;16.936;2023-03-01T15:58:58;11.65;;;5.13;;
53903;SDS011;39812;52.430;16.936;2023-03-01T16:01:25;9.75;;;4.82;;
53903;SDS011;39812;52.430;16.936;2023-03-01T16:03:51;12.85;;;5.55;;
53903;SDS011;39812;52.430;16.936;2023-03-01T16:06:18;12.52;;;5.85;;
53903;SDS011;39812;52.430;16.936;2023-03-01T16:08:44;12.43;;;5.88;;
53903;SDS011;39812;52.430;16.936;2023-03-01T16:11:14;12.43;;;5.60;;
53903;SDS011;39812;52.430;16.936;2023-03-01T16:13:43;15.30;;;5.70;;
53903;SDS011;39812;52.430;16.936;2023-03-01T16:16:12;9.77;;;5.03;;
53903;SDS011;39812;52.430;16.936;2023-03-01T16:18:45;11.60;;;5.22;;
53903;SDS011;39812;52.430;16.936;2023-03-01T16:21:12;10.75;;;5.38;;
53903;SDS011;39812;52.430;16.936;2023-03-01T16:23:41;11.27;;;5.78;;
53903;SDS011;39812;52.430;16.936;2023-03-01T16:26:07;16.05;;;6.03;;
53903;SDS011;39812;52.430;16.936;2023-03-01T16:28:34;11.70;;;5.57;;
53903;SDS011;39812;52.430;16.936;2023-03-01T16:30:59;11.40;;;5.70;;
53903;SDS011;39812;52.430;16.936;2023-03-01T16:33:26;11.57;;;6.03;;
53903;SDS011;39812;52.430;16.936;2023-03-01T16:35:52;14.55;;;6.13;;
53903;SDS011;39812;52.430;16.936;2023-03-01T16:38:18;12.55;;;5.55;;
53903;SDS011;39812;52.430;16.936;2023-03-01T16:40:46;13.50;;;6.05;;
53903;SDS011;39812;52.430;16.936;2023-03-01T16:43:13;13.23;;;5.93;;
53903;SDS011;39812;52.430;16.936;2023-03-01T16:45:39;10.30;;;5.95;;
53903;SDS011;39812;52.430;16.936;2023-03-01T16:48:09;14.60;;;5.85;;
53903;SDS011;39812;52.430;16.936;2023-03-01T16:50:35;12.73;;;5.85;;
53903;SDS011;39812;52.430;16.936;2023-03-01T16:53:01;19.08;;;6.40;;
53903;SDS011;39812;52.430;16.936;2023-03-01T16:55:27;12.90;;;6.15;;
53903;SDS011;39812;52.430;16.936;2023-03-01T16:57:53;15.57;;;7.32;;
53903;SDS011;39812;52.430;16.936;2023-03-01T17:00:19;16.42;;;7.03;;
53903;SDS011;39812;52.430;16.936;2023-03-01T17:02:45;14.68;;;6.97;;
53903;SDS011;39812;52.430;16.936;2023-03-01T17:05:11;18.38;;;7.63;;
53903;SDS011;39812;52.430;16.936;2023-03-01T17:07:37;18.63;;;7.10;;